sensor_id;sensor_type;location;lat;lon;timestamp;temperature;humidity
12893;DHT22;6514;48.606;9.222;2022-12-20T00:01:46;2.30;99.90
12893;DHT22;6514;48.606;9.222;2022-12-20T00:04:13;2.20;99.90
12893;DHT22;6514;48.606;9.222;2022-12-20T00:06:39;2.20;99.90
12893;DHT22;6514;48.606;9.222;2022-12-20T00:09:07;2.10;99.90
12893;DHT22;6514;48.606;9.222;2022-12-20T00:11:36;2.10;99.90
12893;DHT22;6514;48.606;9.222;2022-12-20T00:14:04;2.00;99.90
12893;DHT22;6514;48.606;9.222;2022-12-20T00:16:31;1.90;99.90
12893;DHT22;6514;48.606;9.222;2022-12-20T00:19:02;1.90;99.90
12893;DHT22;6514;48.606;9.222;2022-12-20T00:21:31;1.90;99.90
12893;DHT22;6514;48.606;9.222;2022-12-20T00:23:58;1.90;99.90
12893;DHT22;6514;48.606;9.222;2022-12-20T00:26:27;1.90;99.90
12893;DHT22;6514;48.606;9.222;2022-12-20T00:28:55;1.90;99.90
12893;DHT22;6514;48.606;9.222;2022-12-20T00:31:23;1.80;99.90
12893;DHT22;6514;48.606;9.222;2022-12-20T00:33:53;1.80;99.90
12893;DHT22;6514;48.606;9.222;2022-12-20T00:36:22;1.90;99.90
12893;DHT22;6514;48.606;9.222;2022-12-20T00:38:51;2.00;99.90
12893;DHT22;6514;48.606;9.222;2022-12-20T00:41:20;2.00;99.90
12893;DHT22;6514;48.606;9.222;2022-12-20T00:43:47;2.00;99.90
12893;DHT22;6514;48.606;9.222;2022-12-20T00:46:15;1.90;99.90
12893;DHT22;6514;48.606;9.222;2022-12-20T00:48:42;1.90;99.90
12893;DHT22;6514;48.606;9.222;2022-12-20T00:51:12;1.90;99.90
12893;DHT22;6514;48.606;9.222;2022-12-20T00:53:40;1.80;99.90
12893;DHT22;6514;48.606;9.222;2022-12-20T00:56:08;1.80;99.90
12893;DHT22;6514;48.606;9.222;2022-12-20T00:58:37;1.80;99.90
12893;DHT22;6514;48.606;9.222;2022-12-20T01:01:06;1.80;99.90
12893;DHT22;6514;48.606;9.222;2022-12-20T01:03:39;1.80;99.90
12893;DHT22;6514;48.606;9.222;2022-12-20T01:06:08;1.80;99.90
12893;DHT22;6514;48.606;9.222;2022-12-20T01:08:35;1.80;99.90
12893;DHT22;6514;48.606;9.222;2022-12-20T01:11:06;1.90;99.90
12893;DHT22;6514;48.606;9.222;2022-12-20T01:13:34;1.80;99.90
12893;DHT22;6514;48.606;9.222;2022-12-20T01:16:04;1.80;99.90
12893;DHT22;6514;48.606;9.222;2022-12-20T01:18:31;1.80;99.90
12893;DHT22;6514;48.606;9.222;2022-12-20T01:21:02;1.80;99.90
12893;DHT22;6514;48.606;9.222;2022-12-20T01:23:29;1.80;99.90
12893;DHT22;6514;48.606;9.222;2022-12-20T01:25:57;1.90;99.90
12893;DHT22;6514;48.606;9.222;2022-12-20T01:28:27;2.00;99.90
12893;DHT22;6514;48.606;9.222;2022-12-20T01:30:54;2.00;99.90
12893;DHT22;6514;48.606;9.222;2022-12-20T01:33:21;2.10;99.90
12893;DHT22;6514;48.606;9.222;2022-12-20T01:35:55;2.10;99.90
12893;DHT22;6514;48.606;9.222;2022-12-20T01:38:23;2.10;99.90
12893;DHT22;6514;48.606;9.222;2022-12-20T01:40:50;2.10;99.90
12893;DHT22;6514;48.606;9.222;2022-12-20T01:43:18;2.00;99.90
12893;DHT22;6514;48.606;9.222;2022-12-20T01:45:46;2.00;99.90
12893;DHT22;6514;48.606;9.222;2022-12-20T01:48:16;2.00;99.90
12893;DHT22;6514;48.606;9.222;2022-12-20T01:50:45;2.10;99.90
12893;DHT22;6514;48.606;9.222;2022-12-20T01:53:12;2.10;99.90
12893;DHT22;6514;48.606;9.222;2022-12-20T01:55:40;2.00;99.90
12893;DHT22;6514;48.606;9.222;2022-12-20T01:58:10;2.00;99.90
12893;DHT22;6514;48.606;9.222;2022-12-20T02:00:37;2.00;99.90
12893;DHT22;6514;48.606;9.222;2022-12-20T02:03:09;2.00;99.90
12893;DHT22;6514;48.606;9.222;2022-12-20T02:05:39;2.00;99.90
12893;DHT22;6514;48.606;9.222;2022-12-20T02:08:07;2.00;99.90
12893;DHT22;6514;48.606;9.222;2022-12-20T02:10:50;2.00;99.90
12893;DHT22;6514;48.606;9.222;2022-12-20T02:13:33;2.00;99.90
12893;DHT22;6514;48.606;9.222;2022-12-20T02:16:01;2.00;99.90
12893;DHT22;6514;48.606;9.222;2022-12-20T02:18:35;2.00;99.90
12893;DHT22;6514;48.606;9.222;2022-12-20T02:21:16;2.00;99.90
12893;DHT22;6514;48.606;9.222;2022-12-20T02:30:06;2.10;99.90
12893;DHT22;6514;48.606;9.222;2022-12-20T02:32:38;2.10;99.90
12893;DHT22;6514;48.606;9.222;2022-12-20T02:35:07;2.10;99.90
12893;DHT22;6514;48.606;9.222;2022-12-20T02:37:35;2.10;99.90
12893;DHT22;6514;48.606;9.222;2022-12-20T02:40:03;2.10;99.90
12893;DHT22;6514;48.606;9.222;2022-12-20T02:42:32;2.20;99.90
12893;DHT22;6514;48.606;9.222;2022-12-20T02:45:04;2.20;99.90
12893;DHT22;6514;48.606;9.222;2022-12-20T02:47:47;2.20;99.90
12893;DHT22;6514;48.606;9.222;2022-12-20T02:50:18;2.20;99.90
12893;DHT22;6514;48.606;9.222;2022-12-20T02:52:47;2.20;99.90
12893;DHT22;6514;48.606;9.222;2022-12-20T02:55:15;2.20;99.90
12893;DHT22;6514;48.606;9.222;2022-12-20T02:57:46;2.20;99.90
12893;DHT22;6514;48.606;9.222;2022-12-20T03:00:17;2.30;99.90
12893;DHT22;6514;48.606;9.222;2022-12-20T03:02:45;2.40;99.90
12893;DHT22;6514;48.606;9.222;2022-12-20T03:05:32;2.40;99.90
12893;DHT22;6514;48.606;9.222;2022-12-20T03:08:00;2.50;99.90
12893;DHT22;6514;48.606;9.222;2022-12-20T03:10:26;2.70;99.90
12893;DHT22;6514;48.606;9.222;2022-12-20T03:12:53;2.80;99.90
12893;DHT22;6514;48.606;9.222;2022-12-20T03:15:22;2.90;99.90
12893;DHT22;6514;48.606;9.222;2022-12-20T03:17:50;3.00;99.90
12893;DHT22;6514;48.606;9.222;2022-12-20T03:20:17;3.00;99.90
12893;DHT22;6514;48.606;9.222;2022-12-20T03:22:44;3.00;99.90
12893;DHT22;6514;48.606;9.222;2022-12-20T03:25:12;3.00;99.90
12893;DHT22;6514;48.606;9.222;2022-12-20T03:27:39;3.00;99.90
12893;DHT22;6514;48.606;9.222;2022-12-20T03:30:07;2.90;99.90
12893;DHT22;6514;48.606;9.222;2022-12-20T03:32:35;2.90;99.90
12893;DHT22;6514;48.606;9.222;2022-12-20T03:35:02;2.90;99.90
12893;DHT22;6514;48.606;9.222;2022-12-20T03:37:29;2.90;99.90
12893;DHT22;6514;48.606;9.222;2022-12-20T03:39:56;2.90;99.90
12893;DHT22;6514;48.606;9.222;2022-12-20T03:42:23;2.90;99.90
12893;DHT22;6514;48.606;9.222;2022-12-20T03:44:50;2.90;99.90
12893;DHT22;6514;48.606;9.222;2022-12-20T03:47:17;2.80;99.90
12893;DHT22;6514;48.606;9.222;2022-12-20T03:49:45;2.80;99.90
12893;DHT22;6514;48.606;9.222;2022-12-20T03:52:12;2.80;99.90
12893;DHT22;6514;48.606;9.222;2022-12-20T03:54:39;2.80;99.90
12893;DHT22;6514;48.606;9.222;2022-12-20T03:57:06;2.80;99.90
12893;DHT22;6514;48.606;9.222;2022-12-20T03:59:33;2.80;99.90
12893;DHT22;6514;48.606;9.222;2022-12-20T04:02:01;2.80;99.90
12893;DHT22;6514;48.606;9.222;2022-12-20T04:04:28;2.90;99.90
12893;DHT22;6514;48.606;9.222;2022-12-20T04:06:56;3.00;99.90
12893;DHT22;6514;48.606;9.222;2022-12-20T04:09:23;3.00;99.90
12893;DHT22;6514;48.606;9.222;2022-12-20T04:11:50;3.10;99.90
12893;DHT22;6514;48.606;9.222;2022-12-20T04:14:16;3.10;99.90
12893;DHT22;6514;48.606;9.222;2022-12-20T04:16:43;3.00;99.90
12893;DHT22;6514;48.606;9.222;2022-12-20T04:19:10;3.00;99.90
12893;DHT22;6514;48.606;9.222;2022-12-20T04:21:37;3.00;99.90
12893;DHT22;6514;48.606;9.222;2022-12-20T04:24:06;3.00;99.90
12893;DHT22;6514;48.606;9.222;2022-12-20T04:26:33;3.00;99.90
12893;DHT22;6514;48.606;9.222;2022-12-20T04:29:00;3.00;99.90
12893;DHT22;6514;48.606;9.222;2022-12-20T04:31:27;3.00;99.90
12893;DHT22;6514;48.606;9.222;2022-12-20T04:33:54;3.00;99.90
12893;DHT22;6514;48.606;9.222;2022-12-20T04:36:21;2.90;99.90
12893;DHT22;6514;48.606;9.222;2022-12-20T04:38:48;2.90;99.90
12893;DHT22;6514;48.606;9.222;2022-12-20T04:41:16;2.80;99.90
12893;DHT22;6514;48.606;9.222;2022-12-20T04:43:48;2.90;99.90
12893;DHT22;6514;48.606;9.222;2022-12-20T04:46:16;2.80;99.90
12893;DHT22;6514;48.606;9.222;2022-12-20T04:48:43;2.80;99.90
12893;DHT22;6514;48.606;9.222;2022-12-20T04:51:10;2.80;99.90
12893;DHT22;6514;48.606;9.222;2022-12-20T04:53:36;2.80;99.90
12893;DHT22;6514;48.606;9.222;2022-12-20T04:56:13;2.80;99.90
12893;DHT22;6514;48.606;9.222;2022-12-20T04:58:41;2.70;99.90
12893;DHT22;6514;48.606;9.222;2022-12-20T05:01:08;2.70;99.90
12893;DHT22;6514;48.606;9.222;2022-12-20T05:03:35;2.70;99.90
12893;DHT22;6514;48.606;9.222;2022-12-20T05:06:02;2.70;99.90
12893;DHT22;6514;48.606;9.222;2022-12-20T05:08:29;2.70;99.90
12893;DHT22;6514;48.606;9.222;2022-12-20T05:10:56;2.70;99.90
12893;DHT22;6514;48.606;9.222;2022-12-20T05:13:23;2.60;99.90
12893;DHT22;6514;48.606;9.222;2022-12-20T05:15:52;2.60;99.90
12893;DHT22;6514;48.606;9.222;2022-12-20T05:18:19;2.70;99.90
12893;DHT22;6514;48.606;9.222;2022-12-20T05:20:46;2.70;99.90
12893;DHT22;6514;48.606;9.222;2022-12-20T05:23:13;2.70;99.90
12893;DHT22;6514;48.606;9.222;2022-12-20T05:25:58;2.70;99.90
12893;DHT22;6514;48.606;9.222;2022-12-20T05:28:43;2.70;99.90
12893;DHT22;6514;48.606;9.222;2022-12-20T05:31:11;2.60;99.90
12893;DHT22;6514;48.606;9.222;2022-12-20T05:33:38;2.70;99.90
12893;DHT22;6514;48.606;9.222;2022-12-20T05:36:05;2.60;99.90
12893;DHT22;6514;48.606;9.222;2022-12-20T05:38:32;2.60;99.90
12893;DHT22;6514;48.606;9.222;2022-12-20T05:40:59;2.50;99.90
12893;DHT22;6514;48.606;9.222;2022-12-20T05:43:26;2.50;99.90
12893;DHT22;6514;48.606;9.222;2022-12-20T05:45:53;2.50;99.90
12893;DHT22;6514;48.606;9.222;2022-12-20T05:48:21;2.50;99.90
12893;DHT22;6514;48.606;9.222;2022-12-20T05:50:48;2.50;99.90
12893;DHT22;6514;48.606;9.222;2022-12-20T05:53:16;2.50;99.90
12893;DHT22;6514;48.606;9.222;2022-12-20T05:55:43;2.40;99.90
12893;DHT22;6514;48.606;9.222;2022-12-20T05:58:10;2.40;99.90
12893;DHT22;6514;48.606;9.222;2022-12-20T06:00:39;2.30;99.90
12893;DHT22;6514;48.606;9.222;2022-12-20T06:03:06;2.30;99.90
12893;DHT22;6514;48.606;9.222;2022-12-20T06:05:36;2.20;99.90
12893;DHT22;6514;48.606;9.222;2022-12-20T06:08:04;2.20;99.90
12893;DHT22;6514;48.606;9.222;2022-12-20T06:10:31;2.20;99.90
12893;DHT22;6514;48.606;9.222;2022-12-20T06:12:59;2.20;99.90
12893;DHT22;6514;48.606;9.222;2022-12-20T06:15:26;2.10;99.90
12893;DHT22;6514;48.606;9.222;2022-12-20T06:17:53;2.10;99.90
12893;DHT22;6514;48.606;9.222;2022-12-20T06:20:20;2.10;99.90
12893;DHT22;6514;48.606;9.222;2022-12-20T06:22:49;2.20;99.90
12893;DHT22;6514;48.606;9.222;2022-12-20T06:25:17;2.20;99.90
12893;DHT22;6514;48.606;9.222;2022-12-20T06:27:44;2.10;99.90
12893;DHT22;6514;48.606;9.222;2022-12-20T06:30:12;2.20;99.90
12893;DHT22;6514;48.606;9.222;2022-12-20T06:32:39;2.10;99.90
12893;DHT22;6514;48.606;9.222;2022-12-20T06:35:07;2.10;99.90
12893;DHT22;6514;48.606;9.222;2022-12-20T06:37:34;2.10;99.90
12893;DHT22;6514;48.606;9.222;2022-12-20T06:40:04;2.10;99.90
12893;DHT22;6514;48.606;9.222;2022-12-20T06:42:31;2.20;99.90
12893;DHT22;6514;48.606;9.222;2022-12-20T06:44:58;2.20;99.90
12893;DHT22;6514;48.606;9.222;2022-12-20T06:47:24;2.20;99.90
12893;DHT22;6514;48.606;9.222;2022-12-20T06:49:51;2.30;99.90
12893;DHT22;6514;48.606;9.222;2022-12-20T06:52:18;2.30;99.90
12893;DHT22;6514;48.606;9.222;2022-12-20T06:54:45;2.40;99.90
12893;DHT22;6514;48.606;9.222;2022-12-20T06:57:13;2.40;99.90
12893;DHT22;6514;48.606;9.222;2022-12-20T06:59:41;2.40;99.90
12893;DHT22;6514;48.606;9.222;2022-12-20T07:02:09;2.50;99.90
12893;DHT22;6514;48.606;9.222;2022-12-20T07:04:36;2.60;99.90
12893;DHT22;6514;48.606;9.222;2022-12-20T07:07:03;2.60;99.90
12893;DHT22;6514;48.606;9.222;2022-12-20T07:09:30;2.70;99.90
12893;DHT22;6514;48.606;9.222;2022-12-20T07:11:57;2.80;99.90
12893;DHT22;6514;48.606;9.222;2022-12-20T07:14:26;3.00;99.90
12893;DHT22;6514;48.606;9.222;2022-12-20T07:16:53;3.00;99.90
12893;DHT22;6514;48.606;9.222;2022-12-20T07:19:20;3.10;99.90
12893;DHT22;6514;48.606;9.222;2022-12-20T07:21:47;3.20;99.90
12893;DHT22;6514;48.606;9.222;2022-12-20T07:24:14;3.20;99.90
12893;DHT22;6514;48.606;9.222;2022-12-20T07:26:43;3.20;99.90
12893;DHT22;6514;48.606;9.222;2022-12-20T07:29:10;3.30;99.90
12893;DHT22;6514;48.606;9.222;2022-12-20T07:31:38;3.30;99.90
12893;DHT22;6514;48.606;9.222;2022-12-20T07:34:06;3.30;99.90
12893;DHT22;6514;48.606;9.222;2022-12-20T07:36:33;3.40;99.90
12893;DHT22;6514;48.606;9.222;2022-12-20T07:39:00;3.30;99.90
12893;DHT22;6514;48.606;9.222;2022-12-20T07:41:27;3.40;99.90
12893;DHT22;6514;48.606;9.222;2022-12-20T07:43:53;3.40;99.90
12893;DHT22;6514;48.606;9.222;2022-12-20T07:46:22;3.40;99.90
12893;DHT22;6514;48.606;9.222;2022-12-20T07:48:51;3.40;99.90
12893;DHT22;6514;48.606;9.222;2022-12-20T07:51:22;3.40;99.90
12893;DHT22;6514;48.606;9.222;2022-12-20T07:53:54;3.40;99.90
12893;DHT22;6514;48.606;9.222;2022-12-20T07:56:23;3.50;99.90
12893;DHT22;6514;48.606;9.222;2022-12-20T07:58:53;3.50;99.90
12893;DHT22;6514;48.606;9.222;2022-12-20T08:01:23;3.60;99.90
12893;DHT22;6514;48.606;9.222;2022-12-20T08:03:56;3.60;99.90
12893;DHT22;6514;48.606;9.222;2022-12-20T08:06:25;3.60;99.90
12893;DHT22;6514;48.606;9.222;2022-12-20T08:08:55;3.60;99.90
12893;DHT22;6514;48.606;9.222;2022-12-20T08:11:24;3.60;99.90
12893;DHT22;6514;48.606;9.222;2022-12-20T08:13:52;3.60;99.90
12893;DHT22;6514;48.606;9.222;2022-12-20T08:16:19;3.60;99.90
12893;DHT22;6514;48.606;9.222;2022-12-20T08:18:45;3.60;99.90
12893;DHT22;6514;48.606;9.222;2022-12-20T08:23:45;3.60;99.90
12893;DHT22;6514;48.606;9.222;2022-12-20T08:26:12;3.60;99.90
12893;DHT22;6514;48.606;9.222;2022-12-20T08:28:42;3.60;99.90
12893;DHT22;6514;48.606;9.222;2022-12-20T08:31:09;3.50;99.90
12893;DHT22;6514;48.606;9.222;2022-12-20T08:33:38;3.50;99.90
12893;DHT22;6514;48.606;9.222;2022-12-20T08:36:07;3.50;99.90
12893;DHT22;6514;48.606;9.222;2022-12-20T08:38:35;3.50;99.90
12893;DHT22;6514;48.606;9.222;2022-12-20T08:41:05;3.60;99.90
12893;DHT22;6514;48.606;9.222;2022-12-20T08:43:32;3.60;99.90
12893;DHT22;6514;48.606;9.222;2022-12-20T08:46:00;3.70;99.90
12893;DHT22;6514;48.606;9.222;2022-12-20T08:48:27;3.70;99.90
12893;DHT22;6514;48.606;9.222;2022-12-20T08:50:55;3.80;99.90
12893;DHT22;6514;48.606;9.222;2022-12-20T08:53:22;3.80;99.90
12893;DHT22;6514;48.606;9.222;2022-12-20T08:55:50;3.90;99.90
12893;DHT22;6514;48.606;9.222;2022-12-20T08:58:18;3.80;99.90
12893;DHT22;6514;48.606;9.222;2022-12-20T09:00:45;3.80;99.90
12893;DHT22;6514;48.606;9.222;2022-12-20T09:03:12;3.90;99.90
12893;DHT22;6514;48.606;9.222;2022-12-20T09:05:44;3.80;99.90
12893;DHT22;6514;48.606;9.222;2022-12-20T09:08:11;3.90;99.90
12893;DHT22;6514;48.606;9.222;2022-12-20T09:10:38;4.00;99.90
12893;DHT22;6514;48.606;9.222;2022-12-20T09:13:05;3.90;99.90
12893;DHT22;6514;48.606;9.222;2022-12-20T09:15:34;3.90;99.90
12893;DHT22;6514;48.606;9.222;2022-12-20T09:18:02;4.00;99.90
12893;DHT22;6514;48.606;9.222;2022-12-20T09:20:29;4.00;99.90
12893;DHT22;6514;48.606;9.222;2022-12-20T09:22:57;4.00;99.90
12893;DHT22;6514;48.606;9.222;2022-12-20T09:25:25;3.70;99.90
12893;DHT22;6514;48.606;9.222;2022-12-20T09:27:52;4.10;99.90
12893;DHT22;6514;48.606;9.222;2022-12-20T09:30:21;4.10;99.90
12893;DHT22;6514;48.606;9.222;2022-12-20T09:32:49;4.10;99.90
12893;DHT22;6514;48.606;9.222;2022-12-20T09:35:16;4.20;99.90
12893;DHT22;6514;48.606;9.222;2022-12-20T09:37:43;4.20;99.90
12893;DHT22;6514;48.606;9.222;2022-12-20T09:40:15;4.40;99.90
12893;DHT22;6514;48.606;9.222;2022-12-20T09:42:44;4.50;99.90
12893;DHT22;6514;48.606;9.222;2022-12-20T09:45:19;4.60;99.90
12893;DHT22;6514;48.606;9.222;2022-12-20T09:47:50;4.70;99.90
12893;DHT22;6514;48.606;9.222;2022-12-20T09:50:18;4.80;99.90
12893;DHT22;6514;48.606;9.222;2022-12-20T09:53:02;4.90;99.90
12893;DHT22;6514;48.606;9.222;2022-12-20T09:55:41;5.10;99.90
12893;DHT22;6514;48.606;9.222;2022-12-20T09:58:22;5.30;99.90
12893;DHT22;6514;48.606;9.222;2022-12-20T10:00:53;5.50;99.90
12893;DHT22;6514;48.606;9.222;2022-12-20T10:03:23;5.70;99.90
12893;DHT22;6514;48.606;9.222;2022-12-20T10:05:53;5.80;99.90
12893;DHT22;6514;48.606;9.222;2022-12-20T10:08:31;6.00;99.90
12893;DHT22;6514;48.606;9.222;2022-12-20T10:11:08;6.10;99.90
12893;DHT22;6514;48.606;9.222;2022-12-20T10:13:50;6.20;99.90
12893;DHT22;6514;48.606;9.222;2022-12-20T10:16:32;6.20;99.90
12893;DHT22;6514;48.606;9.222;2022-12-20T10:19:21;6.20;99.90
12893;DHT22;6514;48.606;9.222;2022-12-20T10:21:56;6.30;99.90
12893;DHT22;6514;48.606;9.222;2022-12-20T10:24:29;6.20;99.90
12893;DHT22;6514;48.606;9.222;2022-12-20T10:26:57;6.20;99.90
12893;DHT22;6514;48.606;9.222;2022-12-20T10:29:28;6.20;99.90
12893;DHT22;6514;48.606;9.222;2022-12-20T10:31:58;6.20;99.90
12893;DHT22;6514;48.606;9.222;2022-12-20T10:34:27;6.10;99.90
12893;DHT22;6514;48.606;9.222;2022-12-20T10:37:10;6.00;99.90
12893;DHT22;6514;48.606;9.222;2022-12-20T10:39:42;6.00;99.90
12893;DHT22;6514;48.606;9.222;2022-12-20T10:42:24;6.00;99.90
12893;DHT22;6514;48.606;9.222;2022-12-20T10:44:51;5.90;99.90
12893;DHT22;6514;48.606;9.222;2022-12-20T10:47:30;5.80;99.90
12893;DHT22;6514;48.606;9.222;2022-12-20T10:50:13;5.80;99.90
12893;DHT22;6514;48.606;9.222;2022-12-20T10:52:41;5.70;99.90
12893;DHT22;6514;48.606;9.222;2022-12-20T10:55:33;5.70;99.90
12893;DHT22;6514;48.606;9.222;2022-12-20T10:58:05;5.70;99.90
12893;DHT22;6514;48.606;9.222;2022-12-20T11:00:35;5.70;99.90
12893;DHT22;6514;48.606;9.222;2022-12-20T11:03:12;5.60;99.90
12893;DHT22;6514;48.606;9.222;2022-12-20T11:05:52;5.70;99.90
12893;DHT22;6514;48.606;9.222;2022-12-20T11:08:21;5.70;99.90
12893;DHT22;6514;48.606;9.222;2022-12-20T11:11:09;5.70;99.90
12893;DHT22;6514;48.606;9.222;2022-12-20T11:13:37;5.70;99.90
12893;DHT22;6514;48.606;9.222;2022-12-20T11:16:08;5.70;99.90
12893;DHT22;6514;48.606;9.222;2022-12-20T11:18:53;5.70;99.90
12893;DHT22;6514;48.606;9.222;2022-12-20T11:21:30;5.60;99.90
12893;DHT22;6514;48.606;9.222;2022-12-20T11:24:07;5.70;99.90
12893;DHT22;6514;48.606;9.222;2022-12-20T11:26:46;5.80;99.90
12893;DHT22;6514;48.606;9.222;2022-12-20T11:29:41;5.80;99.90
12893;DHT22;6514;48.606;9.222;2022-12-20T11:32:22;5.80;99.90
12893;DHT22;6514;48.606;9.222;2022-12-20T11:34:58;5.90;99.90
12893;DHT22;6514;48.606;9.222;2022-12-20T11:37:34;6.00;99.90
12893;DHT22;6514;48.606;9.222;2022-12-20T11:40:10;6.10;99.90
12893;DHT22;6514;48.606;9.222;2022-12-20T11:42:54;6.10;99.90
12893;DHT22;6514;48.606;9.222;2022-12-20T11:45:29;6.20;99.90
12893;DHT22;6514;48.606;9.222;2022-12-20T11:48:07;6.20;99.90
12893;DHT22;6514;48.606;9.222;2022-12-20T11:50:44;6.20;99.90
12893;DHT22;6514;48.606;9.222;2022-12-20T11:53:21;6.30;99.90
12893;DHT22;6514;48.606;9.222;2022-12-20T11:55:53;6.30;99.90
12893;DHT22;6514;48.606;9.222;2022-12-20T11:58:26;6.30;99.90
12893;DHT22;6514;48.606;9.222;2022-12-20T12:00:56;6.30;99.90
12893;DHT22;6514;48.606;9.222;2022-12-20T12:03:29;6.30;99.90
12893;DHT22;6514;48.606;9.222;2022-12-20T12:06:01;6.40;99.90
12893;DHT22;6514;48.606;9.222;2022-12-20T12:08:38;6.40;99.90
12893;DHT22;6514;48.606;9.222;2022-12-20T12:11:11;6.30;99.90
12893;DHT22;6514;48.606;9.222;2022-12-20T12:13:39;6.20;99.90
12893;DHT22;6514;48.606;9.222;2022-12-20T12:16:09;6.20;99.90
12893;DHT22;6514;48.606;9.222;2022-12-20T12:18:38;6.10;99.90
12893;DHT22;6514;48.606;9.222;2022-12-20T12:21:09;6.00;99.90
12893;DHT22;6514;48.606;9.222;2022-12-20T12:23:48;6.00;99.90
12893;DHT22;6514;48.606;9.222;2022-12-20T12:26:19;5.90;99.90
12893;DHT22;6514;48.606;9.222;2022-12-20T12:28:53;5.90;99.90
12893;DHT22;6514;48.606;9.222;2022-12-20T12:31:24;6.00;99.90
12893;DHT22;6514;48.606;9.222;2022-12-20T12:34:03;6.00;99.90
12893;DHT22;6514;48.606;9.222;2022-12-20T12:36:43;6.10;99.90
12893;DHT22;6514;48.606;9.222;2022-12-20T12:44:49;6.50;99.90
12893;DHT22;6514;48.606;9.222;2022-12-20T12:47:22;6.60;99.90
12893;DHT22;6514;48.606;9.222;2022-12-20T12:49:52;6.70;99.90
12893;DHT22;6514;48.606;9.222;2022-12-20T12:52:41;6.80;99.90
12893;DHT22;6514;48.606;9.222;2022-12-20T12:55:38;6.90;99.90
12893;DHT22;6514;48.606;9.222;2022-12-20T12:58:13;6.80;99.90
12893;DHT22;6514;48.606;9.222;2022-12-20T13:00:51;6.80;99.90
12893;DHT22;6514;48.606;9.222;2022-12-20T13:03:35;6.80;99.90
12893;DHT22;6514;48.606;9.222;2022-12-20T13:09:17;6.70;99.90
12893;DHT22;6514;48.606;9.222;2022-12-20T13:11:48;6.70;99.90
12893;DHT22;6514;48.606;9.222;2022-12-20T13:14:46;6.70;99.90
12893;DHT22;6514;48.606;9.222;2022-12-20T13:17:45;6.70;99.90
12893;DHT22;6514;48.606;9.222;2022-12-20T13:20:17;6.60;99.90
12893;DHT22;6514;48.606;9.222;2022-12-20T13:23:09;6.60;99.90
12893;DHT22;6514;48.606;9.222;2022-12-20T13:25:43;6.50;99.90
12893;DHT22;6514;48.606;9.222;2022-12-20T13:28:45;6.50;99.90
12893;DHT22;6514;48.606;9.222;2022-12-20T13:31:31;6.40;99.90
12893;DHT22;6514;48.606;9.222;2022-12-20T13:34:00;6.30;99.90
12893;DHT22;6514;48.606;9.222;2022-12-20T13:36:34;6.30;99.90
12893;DHT22;6514;48.606;9.222;2022-12-20T13:39:30;6.20;99.90
12893;DHT22;6514;48.606;9.222;2022-12-20T13:42:16;6.10;99.90
12893;DHT22;6514;48.606;9.222;2022-12-20T13:44:46;6.10;99.90
12893;DHT22;6514;48.606;9.222;2022-12-20T13:47:35;6.10;99.90
12893;DHT22;6514;48.606;9.222;2022-12-20T13:50:22;6.10;99.90
12893;DHT22;6514;48.606;9.222;2022-12-20T13:52:50;6.00;99.90
12893;DHT22;6514;48.606;9.222;2022-12-20T13:55:31;6.00;99.90
12893;DHT22;6514;48.606;9.222;2022-12-20T13:58:09;5.90;99.90
12893;DHT22;6514;48.606;9.222;2022-12-20T14:00:38;5.90;99.90
12893;DHT22;6514;48.606;9.222;2022-12-20T14:03:20;5.90;99.90
12893;DHT22;6514;48.606;9.222;2022-12-20T14:05:48;6.00;99.90
12893;DHT22;6514;48.606;9.222;2022-12-20T14:08:19;6.00;99.90
12893;DHT22;6514;48.606;9.222;2022-12-20T14:10:47;6.20;99.90
12893;DHT22;6514;48.606;9.222;2022-12-20T14:13:20;6.50;99.90
12893;DHT22;6514;48.606;9.222;2022-12-20T14:15:50;6.60;99.90
12893;DHT22;6514;48.606;9.222;2022-12-20T14:18:19;6.60;99.90
12893;DHT22;6514;48.606;9.222;2022-12-20T14:20:48;6.70;99.90
12893;DHT22;6514;48.606;9.222;2022-12-20T14:23:18;6.80;99.90
12893;DHT22;6514;48.606;9.222;2022-12-20T14:25:47;6.80;99.90
12893;DHT22;6514;48.606;9.222;2022-12-20T14:28:28;6.90;99.90
12893;DHT22;6514;48.606;9.222;2022-12-20T14:30:58;6.80;99.90
12893;DHT22;6514;48.606;9.222;2022-12-20T14:33:32;6.80;99.90
12893;DHT22;6514;48.606;9.222;2022-12-20T14:36:08;6.80;99.90
12893;DHT22;6514;48.606;9.222;2022-12-20T14:38:35;6.70;99.90
12893;DHT22;6514;48.606;9.222;2022-12-20T14:41:02;6.70;99.90
12893;DHT22;6514;48.606;9.222;2022-12-20T14:43:33;6.70;99.90
12893;DHT22;6514;48.606;9.222;2022-12-20T14:46:16;6.60;99.90
12893;DHT22;6514;48.606;9.222;2022-12-20T14:48:43;6.40;99.90
12893;DHT22;6514;48.606;9.222;2022-12-20T14:51:11;6.40;99.90
12893;DHT22;6514;48.606;9.222;2022-12-20T14:53:39;6.20;99.90
12893;DHT22;6514;48.606;9.222;2022-12-20T14:56:13;6.20;99.90
12893;DHT22;6514;48.606;9.222;2022-12-20T14:58:41;6.20;99.90
12893;DHT22;6514;48.606;9.222;2022-12-20T15:01:19;6.20;99.90
12893;DHT22;6514;48.606;9.222;2022-12-20T15:03:50;6.10;99.90
12893;DHT22;6514;48.606;9.222;2022-12-20T15:06:31;6.00;99.90
12893;DHT22;6514;48.606;9.222;2022-12-20T15:08:59;6.00;99.90
12893;DHT22;6514;48.606;9.222;2022-12-20T15:11:26;6.00;99.90
12893;DHT22;6514;48.606;9.222;2022-12-20T15:13:54;6.00;99.90
12893;DHT22;6514;48.606;9.222;2022-12-20T15:16:25;6.00;99.90
12893;DHT22;6514;48.606;9.222;2022-12-20T15:18:55;6.00;99.90
12893;DHT22;6514;48.606;9.222;2022-12-20T15:21:27;6.00;99.90
12893;DHT22;6514;48.606;9.222;2022-12-20T15:23:55;5.90;99.90
12893;DHT22;6514;48.606;9.222;2022-12-20T15:26:24;5.90;99.90
12893;DHT22;6514;48.606;9.222;2022-12-20T15:28:52;5.80;99.90
12893;DHT22;6514;48.606;9.222;2022-12-20T15:31:21;5.80;99.90
12893;DHT22;6514;48.606;9.222;2022-12-20T15:33:50;5.70;99.90
12893;DHT22;6514;48.606;9.222;2022-12-20T15:36:21;5.70;99.90
12893;DHT22;6514;48.606;9.222;2022-12-20T15:38:49;5.70;99.90
12893;DHT22;6514;48.606;9.222;2022-12-20T15:41:22;5.60;99.90
12893;DHT22;6514;48.606;9.222;2022-12-20T15:43:51;5.60;99.90
12893;DHT22;6514;48.606;9.222;2022-12-20T15:46:19;5.60;99.90
12893;DHT22;6514;48.606;9.222;2022-12-20T15:48:46;5.60;99.90
12893;DHT22;6514;48.606;9.222;2022-12-20T15:51:20;5.60;99.90
12893;DHT22;6514;48.606;9.222;2022-12-20T15:53:48;5.60;99.90
12893;DHT22;6514;48.606;9.222;2022-12-20T15:56:18;5.70;99.90
12893;DHT22;6514;48.606;9.222;2022-12-20T15:58:46;5.70;99.90
12893;DHT22;6514;48.606;9.222;2022-12-20T16:01:16;5.70;99.90
12893;DHT22;6514;48.606;9.222;2022-12-20T16:03:44;5.70;99.90
12893;DHT22;6514;48.606;9.222;2022-12-20T16:06:11;5.60;99.90
12893;DHT22;6514;48.606;9.222;2022-12-20T16:08:40;5.50;99.90
12893;DHT22;6514;48.606;9.222;2022-12-20T16:11:16;5.50;99.90
12893;DHT22;6514;48.606;9.222;2022-12-20T16:13:45;5.40;99.90
12893;DHT22;6514;48.606;9.222;2022-12-20T16:16:14;5.30;99.90
12893;DHT22;6514;48.606;9.222;2022-12-20T16:18:42;5.30;99.90
12893;DHT22;6514;48.606;9.222;2022-12-20T16:21:14;5.30;99.90
12893;DHT22;6514;48.606;9.222;2022-12-20T16:23:43;5.30;99.90
12893;DHT22;6514;48.606;9.222;2022-12-20T16:26:12;5.30;99.90
12893;DHT22;6514;48.606;9.222;2022-12-20T16:28:39;5.30;99.90
12893;DHT22;6514;48.606;9.222;2022-12-20T16:31:10;5.30;99.90
12893;DHT22;6514;48.606;9.222;2022-12-20T16:33:38;5.30;99.90
12893;DHT22;6514;48.606;9.222;2022-12-20T16:36:07;5.40;99.90
12893;DHT22;6514;48.606;9.222;2022-12-20T16:38:35;5.40;99.90
12893;DHT22;6514;48.606;9.222;2022-12-20T16:41:11;5.30;99.90
12893;DHT22;6514;48.606;9.222;2022-12-20T16:43:38;5.30;99.90